ASN logo
ASN Wikibase Occurrence # 152457
Last updated: 7 October 2019
This information is added by users of ASN. Neither ASN nor the Flight Safety Foundation are responsible for the completeness or correctness of this information. If you feel this information is incomplete or incorrect, you can submit corrected information.

Date:12-JAN-2013
Time:10:31 LT
Type:Silhouette image of generic A319 model; specific model in this crash may look slightly different
Airbus A319-114
Owner/operator:S7 Airlines
Registration: VP-BTQ
C/n / msn: 1149
Fatalities:Fatalities: 0 / Occupants: 53
Other fatalities:0
Aircraft damage: None
Location:Rostov-on-Don Airport -   Russia
Phase: Landing
Nature:Scheduled Passenger
Departure airport: (IATA: DME, ICAO: UUDD)
Destination airport:(IATA: ROV, ICAO: URRR)
Narrative:
An Airbus A319 could not be stopped on runway 22 after landing at Rostov-on-Don Airport. It slid 40 m past the end of the runway, according to a report by the Russian Interior Ministry.
There was no damage and there were no injuries. The airport was temporarily closed.

A Donavia Boeing 737-43Q (VQ-BCS) was directly behind Sibir flight 1153 and aborted the approach.

Weather at the time of the incident (ca 06:30 UTC)was:
URRR 120630Z 18005G08MPS 1300 R22/1300 SN BKN005 OVC015 00/M01 Q1016 TEMPO 0800 +SNRA OVC003 RMK QBB160 SC030
URRR 120600Z 18004MPS 1400 R22/1400 SN BKN005 OVC016 01/M01 Q1016 TEMPO 0800 +SNRA OVC003 RMK QBB150 SC030

Sources:

https://mvd.ru/news/show_118121
https://life.ru?utm_source=rusnovosti&utm_campaign=redirect
[LINK NOT WORKING ANYMORE:http://www.livekuban.ru/node/495714]


Images:

Photo of VP-BTQ courtesy AirHistory.net


Helsinki - Vantaa (EFHK / HEL)
28 May 2008; (c) Juhani Sipilš

Revision history:

Date/timeContributorUpdates
12-Jan-2013 04:36 Hans Gruber Added
12-Jan-2013 04:42 harro Updated [Aircraft type, Source, Narrative]
12-Jan-2013 05:40 Hans Gruber Updated [Time, Operator, Source, Narrative]
12-Jan-2013 05:46 harro Updated [Aircraft type, Registration, Cn, Narrative]
12-Jan-2013 05:48 harro Updated [Narrative]

Corrections or additions? ... Edit this accident description